MENU
  Tipster Buy
Tips
Recent
Form
Tips ROI
(%)
Longest
Losing
Streak
Strike
Rate
Points Profit
(90 Days)
1. Golden Goose 289 29% 22 20% 84.96
2. Trio_To_Triumph   191 17% 11 19% 32.64
3. SOD THE ODDS select   162 20% 26 13% 32.25
All bets placed at your own risk | Profits @ Betfair SPs
 
Login / Register
Tipster League Tables
* 90 Day  - Back Tips/Lay Tips
* 120 Day - Back Tips/Lay Tips
* 365 Day - Back Tips/Lay Tips
* Sep      - Back Tips/Lay Tips
Today's Racing Tips
* Tips Available Today
* Todays Racing Fixtures
* Buy Horse Racing Tips
* Free Horse Racing Tips
Info & Services
* Horse Racing
* Betting

Tipping League > Horse Racing > Horse Racing Tipsters > Golden Goose Back Tips : Lay Tips | Profile

Access Tips For Golden Goose

Tipster First
Race
Back Tips Lay Tips Cost
Golden Goose 12:45 6   £2.00
(Per day)
 
(To check a tipping line has been updated today please check the league tables)

Recent Winners

The winners below have been given in the last 30 days.
Selection Betfair SP Racecourse Date and Time
Raha WON @ 50.00 SALISBURY 2020-10-01 15:15:00
Mr Scaramanga WON @ 37.28 Chelmsford City 2020-10-22 18:00:00
Sha La La La Lee WON @ 32.85 WOLVERHAMPTON 2020-10-12 19:00:00
Uncle Bernie WON @ 27.24 WOLVERHAMPTON 2020-10-17 17:30:00
Bobby Shaft WON @ 22.00 DONCASTER 2020-10-24 16:10:00

Recent Form Of Golden Goose

The default form guide shows you how the tipping service provided by Golden Goose has performed over their last 15 tips. Alternatively, click on a month below to see how the tipster performed over the whole of that month.

Oct 2020Sep 2020Aug 2020Jul 2020Jun 2020May 2020
Apr 2020Mar 2020Feb 2020Jan 2020Dec 2019Nov 2019

How would you like to calculate tipster profit stats?
Staking Plan 1 point level stakes Tipsters advised stakes
Type of bet
Min/Max Odds: 
Selection Type: 
 
Race Date / Time Course Horse Market NAP Stake Betfair SP (W) Betfair SP (P) Level Profit Bet Over Min Odds Bet Under Max Odds Advised Profit
31/07/2020 19:25 LING Mobham EACH WAY   0.5 17.71 4.40 -1 - - -1
31/07/2020 19:25 LING Bird To Love EACH WAY   0.5 29.00 6.47 2.23 - - 2.23
31/07/2020 17:25 LING Sovereign B.. EACH WAY   0.5 24.28 6.43 -1 - - -1
31/07/2020 13:45 GOOD Almufti EACH WAY   0.5 18.39 5.73 -1 - - -1
31/07/2020 13:45 GOOD Afaak EACH WAY   0.5 34.00 8.45 3.22 - - 3.22
29/07/2020 17:30 THIR Mikmak EACH WAY   0.5 31.36 5.90 -1 - - -1
29/07/2020 17:30 THIR Kryptos EACH WAY   0.5 26.22 5.75 -1 - - -1
29/07/2020 17:30 THIR Custodian EACH WAY   0.5 50.89 10.38 -1 - - -1
29/07/2020 17:30 THIR Club Wexford EACH WAY   0.5 96.65 14.35 -1 - - -1
29/07/2020 17:00 THIR Lorton EACH WAY   0.5 42.00 10.31 -1 - - -1
29/07/2020 17:00 THIR Wahoo EACH WAY   0.5 24.00 6.52 -1 - - -1
29/07/2020 17:00 THIR Starlight R.. EACH WAY   0.5 86.50 17.20 -1 - - -1
29/07/2020 15:20 GOOD Dirty Rascal EACH WAY   0.5 24.16 4.40 -1 - - -1
29/07/2020 12:45 GOOD Blue Laureate EACH WAY   0.5 30.00 5.21 -1 - - -1
29/07/2020 12:45 GOOD Itsafreebee EACH WAY   0.5 160.00 13.74 -1 - - -1
28/07/2020 17:00 YARM Alabama Dre.. EACH WAY   0.5 45.68 11.00 -1 - - -1
28/07/2020 15:35 AYR Black Friday EACH WAY   0.5 25.00 4.08 -1 - - -1
28/07/2020 15:35 AYR Magic Voice EACH WAY   0.5 14.50 3.25 -1 - - -1
28/07/2020 12:45 GOOD Walkinthesand EACH WAY   0.5 43.50 6.26 -1 - - -1
28/07/2020 12:45 GOOD Lawn Ranger EACH WAY   0.5 208.18 17.50 -1 - - -1
27/07/2020 19:30 WIND Telekinetic EACH WAY   0.5 15.15 2.74 -1 - - -1
27/07/2020 19:30 WIND Vitellio Sc.. EACH WAY   0.5 111.90 12.50 -1 - - -1
27/07/2020 18:30 WIND Grey Dars EACH WAY   0.5 20.42 5.78 -1 - - -1
27/07/2020 18:30 WIND Htilominlo EACH WAY   0.5 37.85 8.80 -1 - - -1
27/07/2020 16:25 REDC Myrmidons EACH WAY   0.5 9.04 2.78 -1 - - -1
27/07/2020 14:50 REDC Jupiter Road EACH WAY   0.5 130.00 15.50 -1 - - -1
27/07/2020 14:50 REDC Strong Steps EACH WAY   0.5 60.00 11.54 -1 - - -1
27/07/2020 14:50 REDC Bollihope EACH WAY   0.5 26.04 5.57 -1 - - -1
27/07/2020 14:20 REDC Roaring For.. EACH WAY   0.5 120.00 14.00 -1 - - -1
27/07/2020 14:20 REDC Come On Linda EACH WAY   0.5 46.00 7.60 2.8 - - 2.8
27/07/2020 14:20 REDC Ill Be Brief EACH WAY   0.5 53.55 8.35 3.18 - - 3.18
27/07/2020 14:20 REDC Sushi Power EACH WAY   0.5 95.42 14.50 -1 - - -1
26/07/2020 16:05 WOLV Gorhams Cave EACH WAY   0.5 19.00 4.50 -1 - - -1
26/07/2020 16:05 WOLV Global Rock EACH WAY   0.5 10.57 2.70 -1 - - -1
26/07/2020 15:30 YORK Egrecio EACH WAY   0.5 13.50 3.85 -1 - - -1
26/07/2020 15:15 ASCO Sun Power EACH WAY   0.5 33.56 6.40 -1 - - -1
26/07/2020 15:15 ASCO Ziggle Pops EACH WAY   0.5 26.07 4.80 -1 - - -1
26/07/2020 15:15 ASCO Love Dreams EACH WAY   0.5 48.00 8.40 -1 - - -1
26/07/2020 15:00 WOLV Kupa River EACH WAY   0.5 17.39 4.66 1.33 - - 1.33
21/07/2020 19:45 SAND Enigmatic EACH WAY   0.5 24.00 6.86 -1 - - -1
21/07/2020 19:45 SAND Mr Tyrrell EACH WAY   0.5 34.00 6.80 -1 - - -1
21/07/2020 19:45 SAND Kodiac Harb.. EACH WAY   0.5 14.29 4.17 -1 - - -1
21/07/2020 19:45 SAND Lightning A.. EACH WAY   0.5 420.00 49.23 -1 - - -1
21/07/2020 19:15 SAND Archimento EACH WAY   0.5 38.00 8.20 -1 - - -1
21/07/2020 15:15 CHEP Urban Scene EACH WAY   0.5 80.00 13.50 -1 - - -1
20/07/2020 16:30 WIND Black Medick EACH WAY   0.5 23.52 5.92 -1 - - -1
20/07/2020 16:30 WIND Burniston R.. EACH WAY   0.5 32.00 8.20 -1 - - -1
20/07/2020 16:30 WIND The Stalkin.. EACH WAY   0.5 120.00 29.47 -1 - - -1
20/07/2020 14:20 AYR Anna Maria EACH WAY   0.5 17.92 4.60 -1 - - -1
20/07/2020 14:20 AYR Quercus EACH WAY   0.5 37.98 10.50 -1 - - -1
18/07/2020 16:00 NEWB Latent Heat EACH WAY   0.5 19.00 4.80 -1 - - -1
18/07/2020 15:20 HAYD Red Derek EACH WAY   0.5 18.50 4.30 1.15 - - 1.15
18/07/2020 15:20 HAYD Star Archer EACH WAY   0.5 36.00 8.80 -1 - - -1
18/07/2020 13:30 YORK Euchen Glen EACH WAY   0.5 40.00 8.23 -1 - - -1
18/07/2020 13:30 YORK Rise Hall EACH WAY   0.5 50.00 8.15 -1 - - -1
18/07/2020 13:30 YORK Whats The S.. EACH WAY   0.5 114.71 16.00 -1 - - -1
17/07/2020 19:35 LEIC Flower Power EACH WAY   0.5 75.00 15.50 -1 - - -1
17/07/2020 19:25 HAYD Thorn EACH WAY   0.5 33.34 5.90 1.95 - - 1.95
17/07/2020 19:25 HAYD Critical Time EACH WAY   0.5 22.42 4.80 -1 - - -1
17/07/2020 19:25 HAYD Star Of Val.. EACH WAY   0.5 12.50 2.98 6.74 - - 6.74
16/07/2020 19:00 SAND Flat Stone EACH WAY   0.5 74.08 16.79 -1 - - -1
15/07/2020 17:10 KEMP Crystal Cas.. EACH WAY   0.5 16.44 4.80 -1 - - -1
15/07/2020 17:10 KEMP Nezar EACH WAY   0.5 60.00 10.87 -1 - - -1
15/07/2020 17:10 KEMP Soar Above EACH WAY   0.5 17.50 4.60 1.3 - - 1.3
15/07/2020 15:20 CATT Splash of V.. EACH WAY   0.5 34.88 8.11 3.05 - - 3.05
14/07/2020 19:15 RIPO Appointed EACH WAY   0.5 15.18 3.33 0.66 - - 0.66
14/07/2020 16:50 AYR Glengarry EACH WAY   0.5 60.00 9.68 -1 - - -1
14/07/2020 16:15 AYR Merricourt EACH WAY   0.5 30.00 7.00 -1 - - -1
14/07/2020 16:15 AYR Oriental Li.. EACH WAY   0.5 30.23 7.29 17.76 - - 17.76
13/07/2020 18:45 KEMP Atomic Jack EACH WAY   0.5 21.44 5.90 12.67 - - 12.67
13/07/2020 18:45 KEMP Sea Sculpture EACH WAY   0.5 30.55 8.40 -1 - - -1
13/07/2020 16:10 KEMP Hawridge Fl.. EACH WAY   0.5 24.13 8.35 -1 - - -1
13/07/2020 16:10 KEMP Zzoro EACH WAY   0.5 32.00 9.40 -1 - - -1
13/07/2020 13:50 AYR Moneyball EACH WAY   0.5 130.00 26.81 -1 - - -1
13/07/2020 13:10 WIND Canal Rocks EACH WAY   0.5 16.00 4.20 -1 - - -1
13/07/2020 13:10 WIND World Title EACH WAY   0.5 34.00 7.40 -1 - - -1
13/07/2020 13:10 WIND Corazon Esp.. EACH WAY   0.5 30.50 7.40 -1 - - -1
12/07/2020 15:05 LING Into Debt EACH WAY   0.5 90.00 16.81 -1 - - -1
12/07/2020 15:05 LING Urban Scene EACH WAY   0.5 210.00 31.61 -1 - - -1
12/07/2020 14:55 HAMI Lukoutoldma.. EACH WAY   0.5 32.00 7.20 -1 - - -1
12/07/2020 14:55 HAMI Retirement .. EACH WAY   0.5 23.91 5.23 1.62 - - 1.62
11/07/2020 19:45 SALI Sharp Reply EACH WAY   0.5 14.75 4.60 -1 - - -1
11/07/2020 19:45 SALI Banish EACH WAY   0.5 85.00 17.72 -1 - - -1
11/07/2020 15:10 NEWM Muntadab EACH WAY   0.5 22.00 4.64 -1 - - -1
11/07/2020 15:10 NEWM Cardsharp EACH WAY   0.5 39.39 6.01 -1 - - -1
11/07/2020 15:10 NEWM Lethal Lunch EACH WAY   0.5 44.11 8.68 -1 - - -1
11/07/2020 13:05 ASCO Earth And Sky EACH WAY   0.5 17.27 4.92 1.46 - - 1.46
11/07/2020 12:30 ASCO Emenem EACH WAY   0.5 90.04 15.79 -1 - - -1
10/07/2020 18:35 BATH Janus EACH WAY   0.5 17.50 4.80 1.4 - - 1.4
10/07/2020 15:00 MUSS Jacob Black EACH WAY   0.5 21.00 5.60 -1 - - -1
10/07/2020 15:00 MUSS Donnellys R.. EACH WAY   0.5 19.00 4.20 1.1 - - 1.1
10/07/2020 14:00 NEWM Kings Advice EACH WAY   0.5 21.00 4.00 -1 - - -1
10/07/2020 14:00 NEWM Dubai Future EACH WAY   0.5 24.94 5.40 -1 - - -1
09/07/2020 16:20 YORK Elerfaan EACH WAY   0.5 112.30 9.17 -1 - - -1
09/07/2020 16:20 YORK Kylie Rules EACH WAY   0.5 14.55 2.62 -1 - - -1
09/07/2020 16:20 YORK Orbaan EACH WAY   0.5 31.46 3.94 16.7 - - 16.7
09/07/2020 15:50 YORK Doctor Cross EACH WAY   0.5 8.89 2.00 0 - - 0
09/07/2020 14:45 YORK Delph Cresc.. EACH WAY   0.5 8.67 2.52 -1 - - -1
09/07/2020 12:30 YORK Daawy EACH WAY   0.5 33.25 6.36 -1 - - -1
09/07/2020 11:55 YORK Mutamaded EACH WAY   0.5 55.00 8.90 -1 - - -1
08/07/2020 17:40 NEWB Oloroso EACH WAY   0.5 15.00 4.32 8.66 - - 8.66
08/07/2020 17:40 NEWB Makambe EACH WAY   0.5 38.00 8.40 -1 - - -1
08/07/2020 13:40 RIPO Hillwalker EACH WAY   0.5 98.44 18.97 -1 - - -1
08/07/2020 13:40 RIPO Modakhar EACH WAY   0.5 39.93 7.80 -1 - - -1
07/07/2020 11:45 PONT Regal Mirage EACH WAY   0.5 31.86 7.80 -1 - - -1
07/07/2020 11:45 PONT Thomas Cran.. EACH WAY   0.5 19.06 6.31 -1 - - -1
07/07/2020 11:45 PONT Banksea EACH WAY   0.5 102.15 23.00 -1 - - -1
06/07/2020 20:00 THIR Rgeebee EACH WAY   0.5 25.00 7.01 -1 - - -1
06/07/2020 20:00 THIR Jenny Ren EACH WAY   0.5 15.43 4.90 -1 - - -1
06/07/2020 19:30 THIR Be Bold EACH WAY   0.5 43.65 9.45 -1 - - -1
05/07/2020 14:15 HAYD Hochfeld EACH WAY   0.5 108.88 11.18 -1 - - -1
05/07/2020 12:30 HAYD Sassie EACH WAY   0.5 37.49 5.14 -1 - - -1
05/07/2020 12:30 HAYD Vindolanda EACH WAY   0.5 35.34 4.76 19.05 - - 19.05
04/07/2020 17:25 YARM Engrave EACH WAY   0.5 19.87 4.30 1.15 - - 1.15
04/07/2020 16:35 EPSO Alemarataly.. EACH WAY   0.5 40.00 9.01 3.51 - - 3.51
04/07/2020 14:00 EPSO Mr Scaramanga EACH WAY   0.5 65.90 6.52 -1 - - -1
04/07/2020 14:00 EPSO Data Protec.. EACH WAY   0.5 18.50 3.53 0.76 - - 0.76
04/07/2020 13:40 HAYD Byrons Choice EACH WAY   0.5 22.47 6.00 -1 - - -1
03/07/2020 17:20 HAMI Auxiliary EACH WAY   0.5 38.00 7.40 -1 - - -1
03/07/2020 17:00 WOLV Stallone EACH WAY   0.5 116.26 18.00 -1 - - -1
03/07/2020 15:50 HAMI Edgar Allan.. EACH WAY   0.5 42.69 6.40 -1 - - -1
03/07/2020 15:50 HAMI Knighted EACH WAY   0.5 22.00 4.49 -1 - - -1
03/07/2020 14:50 CHEP Sea Sculpture PLACE   1 5.84 2.22 -1 - - -1
03/07/2020 14:50 CHEP Sea Sculpture WIN   1 5.84 2.22 -1 - - -1
02/07/2020 19:30 WOLV Pike Corner.. EACH WAY   0.5 19.16 5.13 -1 - - -1
02/07/2020 16:50 BATH Ideal Grace EACH WAY   0.5 44.82 6.60 -1 - - -1
02/07/2020 13:20 CATT Bumbledom EACH WAY   0.5 18.38 4.67 -1 - - -1
01/07/2020 18:45 KEMP Image Of Th.. EACH WAY   0.5 36.00 7.33 -1 - - -1
Cumulative Profit Over Selected Time Frame: 9.45 points     9.45 points



Additional Info:

Buy Horse Racing Tips  |  Free Horse Racing Tips  |  Free Bets